Time;durP1;ratioP1;P1;durP2;ratioP2;P2;SDS_P1;SDS_P2;PMS_P1;PMS_P2;Temp;Humidity;BMP_temperature;BMP_pressure;BME280_temperature;BME280_humidity;BME280_pressure;Samples;Min_cycle;Max_cycle;Signal;HPM_P1;HPM_P2
2021/05/27 00:00:05;;;;;;;3.53;3.33;;;15.20;99.90;;;;;;5039362;28;20207;-77
2021/05/27 00:02:31;;;;;;;3.47;3.17;;;15.10;99.90;;;;;;5030275;28;20231;-78
2021/05/27 00:04:58;;;;;;;3.75;3.45;;;15.10;99.90;;;;;;5040576;28;20223;-77
2021/05/27 00:07:24;;;;;;;3.92;3.63;;;15.10;99.90;;;;;;5032516;28;20217;-77
2021/05/27 00:09:50;;;;;;;6.15;4.30;;;15.10;99.90;;;;;;5049739;28;20223;-77
2021/05/27 00:12:16;;;;;;;5.03;4.30;;;15.10;99.90;;;;;;5048672;28;20226;-77
2021/05/27 00:14:43;;;;;;;3.40;3.20;;;15.10;99.90;;;;;;5047399;28;20848;-77
2021/05/27 00:17:10;;;;;;;3.38;3.15;;;15.10;99.90;;;;;;5049323;28;20264;-77
2021/05/27 00:19:36;;;;;;;5.03;4.55;;;15.10;99.90;;;;;;5048552;28;20218;-77
2021/05/27 00:22:03;;;;;;;6.68;4.00;;;15.10;99.90;;;;;;5049891;28;20191;-77
2021/05/27 00:24:30;;;;;;;6.60;4.68;;;15.10;99.90;;;;;;5046822;28;20331;-77
2021/05/27 00:26:56;;;;;;;4.60;4.28;;;15.00;99.90;;;;;;5049349;28;20285;-77
2021/05/27 00:29:22;;;;;;;4.25;3.95;;;15.00;99.90;;;;;;5041857;28;20233;-78
2021/05/27 00:31:49;;;;;;;5.25;4.85;;;15.00;99.90;;;;;;5033925;28;20559;-77
2021/05/27 00:34:15;;;;;;;4.68;4.25;;;15.00;99.90;;;;;;5035148;28;20222;-77
2021/05/27 00:36:41;;;;;;;5.25;4.85;;;15.00;99.90;;;;;;5037691;28;20211;-77
2021/05/27 00:39:08;;;;;;;5.15;4.50;;;15.00;99.90;;;;;;5039625;28;20222;-77
2021/05/27 00:41:34;;;;;;;5.40;4.90;;;15.00;99.90;;;;;;5039577;28;20703;-77
2021/05/27 00:44:00;;;;;;;5.20;4.10;;;15.00;99.90;;;;;;5040790;28;20234;-78
2021/05/27 00:46:26;;;;;;;4.43;4.00;;;14.90;99.90;;;;;;5029115;28;20215;-77
2021/05/27 00:49:00;;;;;;;4.80;4.50;;;14.90;99.90;;;;;;5041899;28;20222;-77
2021/05/27 00:51:27;;;;;;;5.30;4.85;;;14.90;99.90;;;;;;5049020;28;20288;-77
2021/05/27 00:53:53;;;;;;;5.63;4.13;;;14.90;99.90;;;;;;5049440;28;20199;-77
2021/05/27 00:56:20;;;;;;;6.20;4.85;;;14.90;99.90;;;;;;5048212;28;20672;-77
2021/05/27 00:58:47;;;;;;;4.15;3.85;;;14.90;99.90;;;;;;5052133;28;20210;-77
2021/05/27 01:01:13;;;;;;;5.25;4.20;;;14.90;99.90;;;;;;5053425;28;20198;-77
2021/05/27 01:03:40;;;;;;;4.95;4.45;;;14.90;99.90;;;;;;5053484;28;20573;-77
2021/05/27 01:06:07;;;;;;;4.82;4.43;;;14.80;99.90;;;;;;5052148;28;20218;-77
2021/05/27 01:08:34;;;;;;;5.13;4.72;;;14.90;99.90;;;;;;5052463;28;20218;-76
2021/05/27 01:11:00;;;;;;;3.80;3.50;;;14.80;99.90;;;;;;5052606;28;20405;-77
2021/05/27 01:13:26;;;;;;;4.22;3.92;;;14.80;99.90;;;;;;5051844;28;20230;-77
2021/05/27 01:15:53;;;;;;;4.80;4.25;;;14.80;99.90;;;;;;5053078;28;20190;-77
2021/05/27 01:18:22;;;;;;;4.68;4.32;;;14.80;99.90;;;;;;5050957;28;20214;-77
2021/05/27 01:20:50;;;;;;;3.75;3.42;;;14.80;99.90;;;;;;5052842;28;20210;-77
2021/05/27 01:23:18;;;;;;;4.65;4.35;;;14.80;99.90;;;;;;5052069;28;20572;-77
2021/05/27 01:25:46;;;;;;;4.43;4.03;;;14.80;99.90;;;;;;5052589;28;20502;-77
2021/05/27 01:28:12;;;;;;;4.88;4.47;;;14.80;99.90;;;;;;5050761;28;20284;-77
2021/05/27 01:30:38;;;;;;;4.00;3.70;;;14.80;99.90;;;;;;5052788;28;20214;-77
2021/05/27 01:33:05;;;;;;;4.68;4.38;;;14.70;99.90;;;;;;5050675;28;20269;-77
2021/05/27 01:35:31;;;;;;;5.88;5.28;;;14.70;99.90;;;;;;5050825;28;20223;-77
2021/05/27 01:37:57;;;;;;;3.95;3.65;;;14.70;99.90;;;;;;5046095;28;20219;-77
2021/05/27 01:40:25;;;;;;;4.25;3.95;;;14.70;99.90;;;;;;5041426;28;20219;-77
2021/05/27 01:42:55;;;;;;;4.10;3.70;;;14.70;99.90;;;;;;5032566;28;20224;-77
2021/05/27 01:45:21;;;;;;;4.32;4.03;;;14.70;99.90;;;;;;5034568;28;20690;-77
2021/05/27 01:47:48;;;;;;;5.80;4.10;;;14.70;99.90;;;;;;5049248;28;21238;-77
2021/05/27 01:50:20;;;;;;;4.05;3.75;;;14.70;99.90;;;;;;5032525;28;20389;-77
2021/05/27 01:52:46;;;;;;;4.00;3.70;;;14.70;99.90;;;;;;5040136;28;20233;-77
2021/05/27 01:55:13;;;;;;;5.07;4.68;;;14.70;99.90;;;;;;5049740;28;20183;-77
2021/05/27 01:57:40;;;;;;;3.88;3.58;;;14.60;99.90;;;;;;5039135;28;20246;-77
2021/05/27 02:00:08;;;;;;;5.40;4.90;;;14.60;99.90;;;;;;5026689;28;20207;-77
2021/05/27 02:02:34;;;;;;;6.85;4.57;;;14.60;99.90;;;;;;5036948;28;20208;-77
2021/05/27 02:05:01;;;;;;;4.32;4.03;;;14.60;99.90;;;;;;5035056;28;20210;-77
2021/05/27 02:07:28;;;;;;;4.35;3.95;;;14.60;99.90;;;;;;5046796;28;20187;-77
2021/05/27 02:09:54;;;;;;;5.00;4.50;;;14.60;99.90;;;;;;5032734;28;20249;-77
2021/05/27 02:12:20;;;;;;;4.93;4.35;;;14.60;99.90;;;;;;5049021;28;20237;-77
2021/05/27 02:14:47;;;;;;;4.43;4.13;;;14.60;99.90;;;;;;5051470;28;20195;-77
2021/05/27 02:17:13;;;;;;;4.30;4.00;;;14.60;99.90;;;;;;5049896;28;20218;-77
2021/05/27 02:19:40;;;;;;;4.57;4.25;;;14.60;99.90;;;;;;5049385;28;20531;-77
2021/05/27 02:22:06;;;;;;;5.40;5.00;;;14.50;99.90;;;;;;5048943;28;20215;-76
2021/05/27 02:24:32;;;;;;;4.85;4.45;;;14.50;99.90;;;;;;5050028;28;20203;-76
2021/05/27 02:26:58;;;;;;;4.75;4.38;;;14.50;99.90;;;;;;5048904;28;20214;-77
2021/05/27 02:29:24;;;;;;;5.35;4.85;;;14.50;99.90;;;;;;5048654;28;20226;-76
2021/05/27 02:31:51;;;;;;;4.13;3.83;;;14.50;99.90;;;;;;5051312;28;20218;-76
2021/05/27 02:34:18;;;;;;;5.13;4.63;;;14.50;99.90;;;;;;5051392;28;20705;-75
2021/05/27 02:36:44;;;;;;;4.68;4.28;;;14.50;99.90;;;;;;5050324;28;20273;-76
2021/05/27 02:39:11;;;;;;;4.72;4.32;;;14.50;99.90;;;;;;5051252;28;20223;-76
2021/05/27 02:41:37;;;;;;;4.72;4.32;;;14.50;99.90;;;;;;5050933;28;20211;-76
2021/05/27 02:44:04;;;;;;;4.88;4.47;;;14.50;99.90;;;;;;5050888;28;20230;-76
2021/05/27 02:46:30;;;;;;;5.45;4.30;;;14.50;99.90;;;;;;5050398;28;20237;-76
2021/05/27 02:48:57;;;;;;;4.70;4.00;;;14.50;99.90;;;;;;5049758;28;20219;-77
2021/05/27 02:51:24;;;;;;;4.95;4.45;;;14.40;99.90;;;;;;5050386;28;20640;-76
2021/05/27 02:53:50;;;;;;;4.15;3.75;;;14.40;99.90;;;;;;5051543;28;20195;-76
2021/05/27 02:56:16;;;;;;;3.55;3.25;;;14.40;99.90;;;;;;5048892;28;20206;-76
2021/05/27 02:58:43;;;;;;;3.65;3.35;;;14.40;99.90;;;;;;5039570;28;20191;-76
2021/05/27 03:01:10;;;;;;;7.00;4.55;;;14.40;99.90;;;;;;5051170;28;20225;-76
2021/05/27 03:03:36;;;;;;;4.63;3.95;;;14.40;99.90;;;;;;5049875;28;20214;-76
2021/05/27 03:06:04;;;;;;;4.43;3.65;;;14.40;99.90;;;;;;5048438;28;20211;-75
2021/05/27 03:08:31;;;;;;;4.38;3.97;;;14.40;99.90;;;;;;5039508;28;20227;-75
2021/05/27 03:10:57;;;;;;;3.75;3.45;;;14.40;99.90;;;;;;5047881;28;20296;-76
2021/05/27 03:13:24;;;;;;;3.45;3.15;;;14.40;99.90;;;;;;5050078;28;20199;-75
2021/05/27 03:15:50;;;;;;;3.70;3.35;;;14.40;99.90;;;;;;5044988;28;20219;-75
2021/05/27 03:18:17;;;;;;;3.55;3.25;;;14.40;99.90;;;;;;5050281;28;20195;-76
2021/05/27 03:20:43;;;;;;;3.72;3.42;;;14.40;99.90;;;;;;5049751;28;20310;-76
2021/05/27 03:23:11;;;;;;;5.30;4.05;;;14.30;99.90;;;;;;5042426;28;20553;-76
2021/05/27 03:25:37;;;;;;;3.58;3.30;;;14.30;99.90;;;;;;5030526;28;20218;-76
2021/05/27 03:28:04;;;;;;;3.83;3.53;;;14.30;99.90;;;;;;5044903;28;20249;-76
2021/05/27 03:30:30;;;;;;;3.38;2.90;;;14.30;99.90;;;;;;5049618;28;20269;-76
2021/05/27 03:32:56;;;;;;;4.13;3.65;;;14.30;99.90;;;;;;5050226;28;20207;-76
2021/05/27 03:35:23;;;;;;;4.10;3.25;;;14.30;99.90;;;;;;5046550;28;20211;-76
2021/05/27 03:37:49;;;;;;;3.35;3.15;;;14.30;99.90;;;;;;5050162;28;20203;-76
2021/05/27 03:40:17;;;;;;;3.22;3.03;;;14.30;99.90;;;;;;5050146;28;20226;-76
2021/05/27 03:42:46;;;;;;;2.92;2.72;;;14.30;99.90;;;;;;5050300;28;20231;-76
2021/05/27 03:45:14;;;;;;;5.20;3.70;;;14.30;99.90;;;;;;5039627;28;20222;-75
2021/05/27 03:47:40;;;;;;;4.63;3.13;;;14.30;99.90;;;;;;5048890;28;20209;-76
2021/05/27 03:50:09;;;;;;;3.20;2.45;;;14.30;99.90;;;;;;5049589;28;20222;-76
2021/05/27 03:52:36;;;;;;;3.40;3.20;;;14.30;99.90;;;;;;5041799;28;20194;-76
2021/05/27 03:55:02;;;;;;;3.80;3.50;;;14.30;99.90;;;;;;5049289;28;20210;-76
2021/05/27 03:57:29;;;;;;;3.55;3.22;;;14.30;99.90;;;;;;5047237;28;20273;-76
2021/05/27 04:02:43;;;;;;;3.67;3.30;;;14.20;99.90;;;;;;5048599;28;20218;-76
2021/05/27 04:07:55;;;;;;;3.97;3.05;;;14.20;99.90;;;;;;5029538;28;20269;-76
2021/05/27 04:10:21;;;;;;;3.00;2.70;;;14.20;99.90;;;;;;5029513;28;20222;-76
2021/05/27 04:12:48;;;;;;;4.07;3.17;;;14.10;99.90;;;;;;5030362;28;20203;-76
2021/05/27 04:15:23;;;;;;;2.50;2.30;;;14.10;99.90;;;;;;5037360;28;20219;-76
2021/05/27 04:17:54;;;;;;;3.50;2.67;;;14.10;99.90;;;;;;5048279;28;20565;-75
2021/05/27 04:20:21;;;;;;;3.28;2.97;;;14.10;99.90;;;;;;5048802;28;20194;-76
2021/05/27 04:22:48;;;;;;;2.80;2.60;;;14.10;99.90;;;;;;5049471;28;20194;-76
2021/05/27 04:25:16;;;;;;;4.32;2.80;;;14.10;99.90;;;;;;5048911;28;20267;-76
2021/05/27 04:27:42;;;;;;;7.32;3.60;;;14.10;99.90;;;;;;5048869;28;20609;-75
2021/05/27 04:30:15;;;;;;;3.03;2.72;;;14.00;99.90;;;;;;5040886;28;20246;-76
2021/05/27 04:32:57;;;;;;;4.00;2.72;;;14.00;99.90;;;;;;5028955;28;20531;-76
2021/05/27 04:35:26;;;;;;;5.40;2.95;;;14.00;99.90;;;;;;5039864;28;20711;-76
2021/05/27 04:37:53;;;;;;;2.58;2.38;;;14.00;99.90;;;;;;5049380;28;20187;-76
2021/05/27 04:40:20;;;;;;;3.17;2.85;;;14.00;99.90;;;;;;5049249;28;20210;-76
2021/05/27 04:42:46;;;;;;;4.25;2.60;;;14.00;99.90;;;;;;5048082;28;20754;-76
2021/05/27 04:45:15;;;;;;;3.35;2.88;;;14.00;99.90;;;;;;5048796;28;20207;-75
2021/05/27 04:47:41;;;;;;;3.30;3.05;;;14.00;99.90;;;;;;5047749;28;20201;-76
2021/05/27 04:50:09;;;;;;;2.70;2.50;;;13.90;99.90;;;;;;5048675;28;20218;-75
2021/05/27 04:52:36;;;;;;;3.28;2.70;;;13.90;99.90;;;;;;5048655;28;20558;-76
2021/05/27 04:55:03;;;;;;;2.70;2.50;;;13.90;99.90;;;;;;5048863;28;20214;-75
2021/05/27 04:57:30;;;;;;;2.40;2.13;;;13.90;99.90;;;;;;5039825;28;20223;-75
2021/05/27 04:59:56;;;;;;;3.20;3.00;;;13.80;99.90;;;;;;5029177;28;20309;-75
2021/05/27 05:02:23;;;;;;;3.22;2.95;;;13.90;99.90;;;;;;5029007;28;20705;-76
2021/05/27 05:04:49;;;;;;;3.30;2.85;;;13.80;99.90;;;;;;5045894;28;20219;-75
2021/05/27 05:07:16;;;;;;;4.57;3.20;;;13.80;99.90;;;;;;5032729;28;20207;-75
2021/05/27 05:09:43;;;;;;;4.45;2.85;;;13.80;99.90;;;;;;5049434;28;20258;-75
2021/05/27 05:12:10;;;;;;;2.60;2.40;;;13.80;99.90;;;;;;5048044;28;20738;-75
2021/05/27 05:14:36;;;;;;;3.25;2.55;;;13.80;99.90;;;;;;5049057;28;20221;-75
2021/05/27 05:17:02;;;;;;;2.25;2.05;;;13.80;99.90;;;;;;5047713;28;20215;-75
2021/05/27 05:19:29;;;;;;;2.90;2.70;;;13.70;99.90;;;;;;5047786;28;20195;-75
2021/05/27 05:21:57;;;;;;;3.67;2.65;;;13.70;99.90;;;;;;5048932;28;20211;-75
2021/05/27 05:24:23;;;;;;;3.08;2.47;;;13.70;99.90;;;;;;5048648;28;20210;-76
2021/05/27 05:26:50;;;;;;;3.20;2.72;;;13.70;99.90;;;;;;5036076;28;20222;-75
2021/05/27 05:29:16;;;;;;;4.22;3.10;;;13.70;99.90;;;;;;5047835;28;20305;-75
2021/05/27 05:31:42;;;;;;;2.72;2.53;;;13.70;99.90;;;;;;5049152;28;20199;-76
2021/05/27 05:34:08;;;;;;;2.63;2.42;;;13.70;99.90;;;;;;5045081;28;20590;-76
2021/05/27 05:36:35;;;;;;;3.00;2.80;;;13.70;99.90;;;;;;5040361;28;20202;-75
2021/05/27 05:39:03;;;;;;;3.47;3.17;;;13.70;99.90;;;;;;5047673;28;20574;-75
2021/05/27 05:41:29;;;;;;;2.88;2.67;;;13.60;99.90;;;;;;5040116;28;20223;-75
2021/05/27 05:43:55;;;;;;;3.17;2.70;;;13.70;99.90;;;;;;5045741;28;20226;-75
2021/05/27 05:46:21;;;;;;;5.28;2.70;;;13.70;99.90;;;;;;5051588;28;20194;-74
2021/05/27 05:48:47;;;;;;;3.42;2.95;;;13.70;99.90;;;;;;5040674;28;20625;-75
2021/05/27 05:51:14;;;;;;;2.75;2.53;;;13.70;99.90;;;;;;5032262;28;20273;-75
2021/05/27 05:53:41;;;;;;;2.75;2.53;;;13.70;99.90;;;;;;5048086;28;20221;-75
2021/05/27 05:56:07;;;;;;;4.32;3.38;;;13.70;99.90;;;;;;5052075;28;20553;-75
2021/05/27 05:58:33;;;;;;;3.65;2.72;;;13.60;99.90;;;;;;5041709;28;20234;-75
2021/05/27 06:00:59;;;;;;;8.55;4.00;;;13.70;99.90;;;;;;5040360;28;20225;-75
2021/05/27 06:03:26;;;;;;;2.75;2.42;;;13.60;99.90;;;;;;5049532;28;20206;-75
2021/05/27 06:05:52;;;;;;;3.05;2.75;;;13.60;99.90;;;;;;5042290;28;20218;-76
2021/05/27 06:08:18;;;;;;;2.80;2.60;;;13.60;99.90;;;;;;5051865;28;20210;-75
2021/05/27 06:10:45;;;;;;;3.97;2.85;;;13.60;99.90;;;;;;5051968;28;20223;-76
2021/05/27 06:13:11;;;;;;;2.85;2.53;;;13.60;99.90;;;;;;5051226;28;20645;-75
2021/05/27 06:15:40;;;;;;;5.00;2.60;;;13.60;99.90;;;;;;5041151;28;20202;-74
2021/05/27 06:18:06;;;;;;;3.15;2.75;;;13.60;99.90;;;;;;5045654;28;20199;-75
2021/05/27 06:20:32;;;;;;;2.97;2.70;;;13.60;99.90;;;;;;5043943;28;20199;-75
2021/05/27 06:22:59;;;;;;;3.78;2.75;;;13.60;99.90;;;;;;5032776;28;20216;-75
2021/05/27 06:25:26;;;;;;;3.30;3.05;;;13.60;99.90;;;;;;5042997;28;20211;-76
2021/05/27 06:27:54;;;;;;;2.78;2.50;;;13.60;99.90;;;;;;5046839;28;20215;-75
2021/05/27 06:30:22;;;;;;;2.50;2.20;;;13.60;99.90;;;;;;5048052;28;20654;-75
2021/05/27 06:32:48;;;;;;;2.50;2.08;;;13.60;99.90;;;;;;5051140;28;20685;-75
2021/05/27 06:35:15;;;;;;;2.53;2.33;;;13.60;99.90;;;;;;5050452;28;20199;-75
2021/05/27 06:37:42;;;;;;;4.00;2.92;;;13.70;99.90;;;;;;5050325;28;20210;-75
2021/05/27 06:40:12;;;;;;;2.60;2.40;;;13.70;99.90;;;;;;5050225;28;20211;-75
2021/05/27 06:42:40;;;;;;;2.53;2.03;;;13.70;99.90;;;;;;5050429;28;20545;-75
2021/05/27 06:45:09;;;;;;;4.53;3.30;;;13.70;99.90;;;;;;5050335;28;20248;-75
2021/05/27 06:47:35;;;;;;;3.60;3.30;;;13.70;99.90;;;;;;5038532;28;20269;-75
2021/05/27 06:50:01;;;;;;;2.60;2.40;;;13.70;99.90;;;;;;5042346;28;20249;-76
2021/05/27 06:52:27;;;;;;;2.30;2.10;;;13.70;99.90;;;;;;5043579;28;20453;-75
2021/05/27 06:54:54;;;;;;;3.45;2.95;;;13.70;99.90;;;;;;5047968;28;20210;-75
2021/05/27 06:57:20;;;;;;;2.40;2.20;;;13.70;99.90;;;;;;5049387;28;20580;-76
2021/05/27 06:59:46;;;;;;;3.35;2.97;;;13.70;99.90;;;;;;5039038;28;20206;-75
2021/05/27 07:02:14;;;;;;;2.60;2.40;;;13.70;99.90;;;;;;5041167;28;20628;-75
2021/05/27 07:04:40;;;;;;;2.83;2.63;;;13.70;99.90;;;;;;5038343;28;20578;-75
2021/05/27 07:07:06;;;;;;;3.58;2.78;;;13.70;99.90;;;;;;5041715;28;20198;-76
2021/05/27 07:09:32;;;;;;;3.42;3.13;;;13.70;99.90;;;;;;5042140;28;20503;-75
2021/05/27 07:11:59;;;;;;;2.50;2.30;;;13.70;99.90;;;;;;5034723;28;20616;-77
2021/05/27 07:14:25;;;;;;;4.43;2.65;;;13.70;99.90;;;;;;5036084;28;20214;-76
2021/05/27 07:16:51;;;;;;;2.90;2.70;;;13.80;99.90;;;;;;5039478;28;20197;-77
2021/05/27 07:19:18;;;;;;;4.18;3.05;;;13.80;99.90;;;;;;5042904;28;20218;-77
2021/05/27 07:21:45;;;;;;;2.22;2.03;;;13.80;99.90;;;;;;5046881;28;20208;-77
2021/05/27 07:24:11;;;;;;;2.97;2.47;;;13.90;99.90;;;;;;5050015;28;20219;-76
2021/05/27 07:26:38;;;;;;;2.33;2.10;;;13.90;99.90;;;;;;5048741;28;20215;-76
2021/05/27 07:29:04;;;;;;;3.30;3.10;;;14.00;99.90;;;;;;5044602;28;20235;-77
2021/05/27 07:31:32;;;;;;;2.28;2.05;;;14.00;99.90;;;;;;5042561;28;20541;-76
2021/05/27 07:33:59;;;;;;;2.70;2.50;;;14.10;99.90;;;;;;5040877;28;20191;-77
2021/05/27 07:36:26;;;;;;;2.30;1.92;;;14.20;99.90;;;;;;5047996;28;20222;-76
2021/05/27 07:38:53;;;;;;;2.40;2.20;;;14.20;99.90;;;;;;5047564;28;20755;-76
2021/05/27 07:41:19;;;;;;;2.65;2.45;;;14.20;99.90;;;;;;5049185;28;20547;-76
2021/05/27 07:43:45;;;;;;;3.28;2.70;;;14.30;99.90;;;;;;5050107;28;20226;-76
2021/05/27 07:46:11;;;;;;;3.38;2.63;;;14.20;99.90;;;;;;5048800;28;20301;-76
2021/05/27 07:48:38;;;;;;;3.17;2.97;;;14.30;99.90;;;;;;5049965;28;20215;-77
2021/05/27 07:51:05;;;;;;;3.15;2.60;;;14.20;99.90;;;;;;5045107;28;20226;-77
2021/05/27 07:53:32;;;;;;;2.85;2.65;;;14.20;99.90;;;;;;5049882;28;20215;-77
2021/05/27 07:55:59;;;;;;;5.03;3.88;;;14.20;99.90;;;;;;5048963;28;20555;-76
2021/05/27 07:58:25;;;;;;;3.45;2.70;;;14.10;99.90;;;;;;5050118;28;20222;-76
2021/05/27 08:00:51;;;;;;;3.55;3.13;;;14.10;99.90;;;;;;5049877;28;20558;-76
2021/05/27 08:03:17;;;;;;;3.38;3.17;;;14.10;99.90;;;;;;5048093;28;20218;-76
2021/05/27 08:05:43;;;;;;;2.85;2.53;;;14.10;99.90;;;;;;5048696;28;20198;-76
2021/05/27 08:08:10;;;;;;;3.53;2.65;;;14.00;99.90;;;;;;5049856;28;20223;-76
2021/05/27 08:10:37;;;;;;;3.42;3.13;;;14.00;99.90;;;;;;5048748;28;20573;-75
2021/05/27 08:13:03;;;;;;;3.50;3.20;;;14.00;99.90;;;;;;5048967;28;20225;-76
2021/05/27 08:15:29;;;;;;;3.13;2.60;;;14.00;99.90;;;;;;5041771;28;20256;-76
2021/05/27 08:17:55;;;;;;;3.10;2.85;;;14.00;99.90;;;;;;5038212;28;20546;-76
2021/05/27 08:20:22;;;;;;;4.60;2.55;;;14.00;99.90;;;;;;5041419;28;20245;-76
2021/05/27 08:22:48;;;;;;;2.70;2.50;;;14.00;99.90;;;;;;5048132;28;20215;-76
2021/05/27 08:25:14;;;;;;;5.90;2.80;;;14.00;99.90;;;;;;5047728;28;20273;-77
2021/05/27 08:27:41;;;;;;;4.38;3.20;;;14.00;99.90;;;;;;5049610;28;20549;-76
2021/05/27 08:30:08;;;;;;;3.15;2.95;;;14.00;99.90;;;;;;5048754;28;20230;-76
2021/05/27 08:32:34;;;;;;;3.95;3.55;;;14.00;99.90;;;;;;5049126;28;20190;-76
2021/05/27 08:35:01;;;;;;;3.03;2.83;;;14.00;99.90;;;;;;5030874;28;20207;-76
2021/05/27 08:37:27;;;;;;;3.50;3.20;;;14.00;99.90;;;;;;5042832;28;20214;-76
2021/05/27 08:39:54;;;;;;;4.85;3.35;;;14.00;99.90;;;;;;5047049;28;20206;-78
2021/05/27 08:42:21;;;;;;;2.80;2.60;;;14.00;99.90;;;;;;5048576;28;20281;-77
2021/05/27 08:44:50;;;;;;;3.47;2.20;;;14.00;99.90;;;;;;5049037;28;20245;-77
2021/05/27 08:47:18;;;;;;;2.97;2.50;;;14.00;99.90;;;;;;5049208;28;20211;-78
2021/05/27 08:49:48;;;;;;;2.67;2.47;;;14.00;99.90;;;;;;5047692;28;20677;-77
2021/05/27 08:52:14;;;;;;;3.05;2.75;;;14.00;99.90;;;;;;5048668;28;20538;-78
2021/05/27 08:54:40;;;;;;;3.03;2.70;;;14.00;99.90;;;;;;5045982;28;20608;-77
2021/05/27 08:57:07;;;;;;;2.78;2.58;;;14.00;99.90;;;;;;5047699;28;20268;-77
2021/05/27 08:59:33;;;;;;;2.90;2.55;;;14.00;99.90;;;;;;5049262;28;20284;-78
2021/05/27 09:02:04;;;;;;;2.65;2.45;;;14.00;99.90;;;;;;5048087;28;20215;-78
2021/05/27 09:04:31;;;;;;;3.33;2.92;;;14.00;99.90;;;;;;5033588;28;20218;-78
2021/05/27 09:06:58;;;;;;;3.90;2.22;;;14.00;99.90;;;;;;5048268;28;20284;-77
2021/05/27 09:09:24;;;;;;;2.70;2.50;;;14.00;99.90;;;;;;5041529;28;20230;-77
2021/05/27 09:11:50;;;;;;;2.47;2.25;;;14.00;99.90;;;;;;5035499;28;20564;-78
2021/05/27 09:14:17;;;;;;;3.75;2.72;;;14.00;99.90;;;;;;5048937;28;20202;-78
2021/05/27 09:17:00;;;;;;;3.25;2.95;;;14.00;99.90;;;;;;5048971;28;20261;-78
2021/05/27 09:19:26;;;;;;;3.90;2.95;;;14.00;99.90;;;;;;5050333;28;20211;-78
2021/05/27 09:21:53;;;;;;;2.75;2.55;;;14.00;99.90;;;;;;5051347;28;20214;-78
2021/05/27 09:24:43;;;;;;;2.70;2.50;;;13.90;99.90;;;;;;5052395;28;20206;-77
2021/05/27 09:27:09;;;;;;;3.95;2.50;;;14.00;99.90;;;;;;5037389;28;20269;-78
2021/05/27 09:29:43;;;;;;;3.55;2.80;;;14.00;99.90;;;;;;5043590;28;20621;-77
2021/05/27 09:32:11;;;;;;;3.10;2.33;;;14.00;99.90;;;;;;5041771;28;20222;-78
2021/05/27 09:34:40;;;;;;;6.35;4.15;;;14.00;99.90;;;;;;5035775;28;20211;-77
2021/05/27 09:37:07;;;;;;;2.35;2.15;;;14.00;99.90;;;;;;5038287;28;20210;-77
2021/05/27 09:39:40;;;;;;;2.55;2.35;;;13.90;99.90;;;;;;5042271;28;20215;-78
2021/05/27 09:42:09;;;;;;;2.58;2.22;;;13.90;99.90;;;;;;5049444;28;20211;-79
2021/05/27 09:44:35;;;;;;;2.47;2.10;;;13.90;99.90;;;;;;5050285;28;20321;-77
2021/05/27 09:47:03;;;;;;;3.60;3.30;;;13.90;99.90;;;;;;5044245;28;20582;-77
2021/05/27 09:49:33;;;;;;;2.70;2.50;;;14.00;99.90;;;;;;5048087;28;20254;-77
2021/05/27 09:52:13;;;;;;;3.22;2.88;;;14.00;99.90;;;;;;5052114;28;20215;-78
2021/05/27 09:54:53;;;;;;;3.40;2.83;;;14.00;99.90;;;;;;5050780;28;20215;-78
2021/05/27 09:57:23;;;;;;;2.85;2.65;;;14.00;99.90;;;;;;5051476;28;20206;-77
2021/05/27 09:59:49;;;;;;;3.05;1.88;;;14.10;99.90;;;;;;5045035;28;20242;-79
2021/05/27 10:02:17;;;;;;;4.57;2.55;;;14.10;99.90;;;;;;5038930;28;20183;-77
2021/05/27 10:05:04;;;;;;;2.03;1.92;;;14.10;99.90;;;;;;5049439;28;20605;-78
2021/05/27 10:07:35;;;;;;;2.63;2.42;;;14.10;99.90;;;;;;5041207;28;20482;-78
2021/05/27 10:10:02;;;;;;;2.65;2.45;;;14.10;99.90;;;;;;5051467;28;20227;-78
2021/05/27 10:12:29;;;;;;;2.25;1.70;;;14.00;99.90;;;;;;5048098;28;20364;-78
2021/05/27 10:14:58;;;;;;;3.30;2.90;;;14.00;99.90;;;;;;5039126;28;20553;-78
2021/05/27 10:17:25;;;;;;;2.17;2.00;;;14.00;99.90;;;;;;5046078;28;20207;-78
2021/05/27 10:19:51;;;;;;;2.70;2.50;;;14.10;99.90;;;;;;5051333;28;20214;-77
2021/05/27 10:22:19;;;;;;;3.38;2.53;;;14.10;99.90;;;;;;5050302;28;20707;-79
2021/05/27 10:24:46;;;;;;;2.90;2.67;;;14.00;99.90;;;;;;5046590;28;20542;-78
2021/05/27 10:27:13;;;;;;;2.35;2.15;;;14.00;99.90;;;;;;5051373;28;20231;-78
2021/05/27 10:29:40;;;;;;;3.15;2.50;;;14.10;99.90;;;;;;5048620;28;20607;-78
2021/05/27 10:32:07;;;;;;;3.75;2.60;;;14.00;99.90;;;;;;5051118;28;20206;-77
2021/05/27 10:34:45;;;;;;;2.47;2.13;;;14.10;99.90;;;;;;5051634;28;20223;-78
2021/05/27 10:37:12;;;;;;;2.92;2.42;;;14.10;99.90;;;;;;5048497;28;20252;-78
2021/05/27 10:39:39;;;;;;;3.03;2.13;;;14.00;99.90;;;;;;5047933;28;20187;-78
2021/05/27 10:42:06;;;;;;;2.55;2.13;;;14.10;99.90;;;;;;5038978;28;20223;-76
2021/05/27 10:44:33;;;;;;;2.35;2.08;;;14.10;99.90;;;;;;5050054;28;20222;-76
2021/05/27 10:47:17;;;;;;;2.35;2.03;;;14.10;99.90;;;;;;5045464;28;20245;-76
2021/05/27 10:49:52;;;;;;;2.33;2.13;;;14.10;99.90;;;;;;5046662;28;20720;-76
2021/05/27 10:52:44;;;;;;;3.65;3.05;;;14.20;99.90;;;;;;5035877;28;20257;-76
2021/05/27 10:55:55;;;;;;;2.20;1.95;;;14.10;99.90;;;;;;5041253;28;20237;-76
2021/05/27 10:59:10;;;;;;;4.40;2.17;;;14.20;99.90;;;;;;5048977;28;20309;-76
2021/05/27 11:01:56;;;;;;;2.42;2.22;;;14.20;99.90;;;;;;5046157;28;20183;-76
2021/05/27 11:04:29;;;;;;;2.28;2.08;;;14.30;99.90;;;;;;5056677;28;20218;-76
2021/05/27 11:07:25;;;;;;;2.15;1.95;;;14.30;99.90;;;;;;5054519;28;20759;-76
2021/05/27 11:09:56;;;;;;;2.70;2.20;;;14.20;99.90;;;;;;5034956;28;20300;-76
2021/05/27 11:12:27;;;;;;;3.05;1.80;;;14.30;99.90;;;;;;5046212;28;20577;-75
2021/05/27 11:15:22;;;;;;;2.25;2.05;;;14.30;99.90;;;;;;5042711;28;20551;-76
2021/05/27 11:18:20;;;;;;;2.72;2.17;;;14.30;99.90;;;;;;5048551;28;20203;-76
2021/05/27 11:20:47;;;;;;;2.22;2.03;;;14.30;99.90;;;;;;5012142;28;20218;-75
2021/05/27 11:23:24;;;;;;;3.47;3.17;;;14.40;99.90;;;;;;5049947;28;20203;-76
2021/05/27 11:25:50;;;;;;;2.50;2.28;;;14.40;99.90;;;;;;5047756;28;20313;-75
2021/05/27 11:28:35;;;;;;;2.10;1.90;;;14.50;99.90;;;;;;5049649;28;20199;-76
2021/05/27 11:31:02;;;;;;;2.58;2.38;;;14.40;99.90;;;;;;5048723;28;20215;-76
2021/05/27 11:33:37;;;;;;;3.08;2.15;;;14.50;99.90;;;;;;5049777;28;20573;-76
2021/05/27 11:36:09;;;;;;;3.00;2.03;;;14.50;99.90;;;;;;5041528;28;20221;-75
2021/05/27 11:38:37;;;;;;;2.67;2.47;;;14.50;99.90;;;;;;5032815;28;20202;-76
2021/05/27 11:41:05;;;;;;;2.50;2.30;;;14.50;99.90;;;;;;5044243;28;20219;-77
2021/05/27 11:43:34;;;;;;;4.82;2.40;;;14.50;99.90;;;;;;5040727;28;20226;-76
2021/05/27 11:46:04;;;;;;;4.15;2.20;;;14.50;99.90;;;;;;5047731;28;20257;-76
2021/05/27 11:48:34;;;;;;;2.85;2.53;;;14.50;99.90;;;;;;5038362;28;20652;-76
2021/05/27 11:51:04;;;;;;;2.65;2.38;;;14.50;99.90;;;;;;5037036;28;20301;-76
2021/05/27 11:53:48;;;;;;;3.10;2.33;;;14.50;99.90;;;;;;5035666;28;20219;-76
2021/05/27 11:56:26;;;;;;;2.33;2.13;;;14.50;99.90;;;;;;5043074;28;20700;-76
2021/05/27 11:58:53;;;;;;;5.32;2.78;;;14.60;99.90;;;;;;5039051;28;20215;-76
2021/05/27 12:01:21;;;;;;;2.80;2.20;;;14.70;99.90;;;;;;5049038;28;20229;-76
2021/05/27 12:04:01;;;;;;;2.80;2.60;;;14.60;99.90;;;;;;5048941;28;20677;-76
2021/05/27 12:06:29;;;;;;;2.53;2.30;;;14.60;99.90;;;;;;5049218;28;20210;-77
2021/05/27 12:08:55;;;;;;;2.72;2.50;;;14.70;99.90;;;;;;5048991;28;20569;-76
2021/05/27 12:11:31;;;;;;;2.50;2.30;;;14.60;99.90;;;;;;5049118;28;20658;-76
2021/05/27 12:14:01;;;;;;;1.95;1.83;;;14.70;99.90;;;;;;5035649;28;20210;-76
2021/05/27 12:16:32;;;;;;;2.08;1.88;;;14.70;99.90;;;;;;5049078;28;20214;-76
2021/05/27 12:19:03;;;;;;;2.80;2.40;;;14.70;99.90;;;;;;5044282;28;20639;-77
2021/05/27 12:21:30;;;;;;;2.75;2.35;;;14.70;99.90;;;;;;5042576;28;20222;-78
2021/05/27 12:23:57;;;;;;;2.45;2.25;;;14.70;99.90;;;;;;5048050;28;20218;-79
2021/05/27 12:26:23;;;;;;;4.88;2.53;;;14.70;99.90;;;;;;5048345;28;20565;-80
2021/05/27 12:28:50;;;;;;;4.93;2.47;;;14.70;99.90;;;;;;5049101;28;20245;-79
2021/05/27 12:31:16;;;;;;;3.00;2.33;;;14.70;99.90;;;;;;5048049;28;20521;-80
2021/05/27 12:33:43;;;;;;;2.95;2.42;;;14.70;99.90;;;;;;5049292;28;20211;-79
2021/05/27 12:36:11;;;;;;;2.90;2.65;;;14.70;99.90;;;;;;5048156;28;20218;-78
2021/05/27 12:38:47;;;;;;;3.65;2.30;;;14.70;99.90;;;;;;5045341;28;20218;-79
2021/05/27 12:41:13;;;;;;;3.28;2.85;;;14.70;99.90;;;;;;5042138;28;20310;-79
2021/05/27 12:43:46;;;;;;;3.53;2.95;;;14.70;99.90;;;;;;5047990;28;20651;-79
2021/05/27 12:46:14;;;;;;;3.10;2.45;;;14.70;99.90;;;;;;5047059;28;20215;-77
2021/05/27 12:48:50;;;;;;;3.35;2.90;;;14.80;99.90;;;;;;5048260;28;20708;-77
2021/05/27 12:51:17;;;;;;;3.58;2.70;;;14.80;99.90;;;;;;5046418;28;20581;-77
2021/05/27 12:53:51;;;;;;;2.60;2.40;;;14.80;99.90;;;;;;5048851;28;20214;-78
2021/05/27 12:56:20;;;;;;;4.07;2.70;;;14.70;99.90;;;;;;5050544;28;20218;-77
2021/05/27 12:58:48;;;;;;;3.50;2.42;;;14.80;99.90;;;;;;5049425;28;20213;-78